sensor_id;sensor_type;location;lat;lon;timestamp;P1;durP1;ratioP1;P2;durP2;ratioP2
23046;SDS011;11691;51.462;6.902;2023-04-27T00:00:46;6.67;;;4.90;;
23046;SDS011;11691;51.462;6.902;2023-04-27T00:03:12;11.20;;;5.87;;
23046;SDS011;11691;51.462;6.902;2023-04-27T00:05:39;9.73;;;5.13;;
23046;SDS011;11691;51.462;6.902;2023-04-27T00:08:06;13.47;;;5.80;;
23046;SDS011;11691;51.462;6.902;2023-04-27T00:10:32;6.87;;;4.30;;
23046;SDS011;11691;51.462;6.902;2023-04-27T00:12:59;8.97;;;5.50;;
23046;SDS011;11691;51.462;6.902;2023-04-27T00:15:25;8.87;;;5.27;;
23046;SDS011;11691;51.462;6.902;2023-04-27T00:17:51;9.33;;;5.10;;
23046;SDS011;11691;51.462;6.902;2023-04-27T00:20:17;8.27;;;4.60;;
23046;SDS011;11691;51.462;6.902;2023-04-27T00:22:44;6.80;;;4.77;;
23046;SDS011;11691;51.462;6.902;2023-04-27T00:25:10;8.63;;;4.67;;
23046;SDS011;11691;51.462;6.902;2023-04-27T00:27:37;8.30;;;4.77;;
23046;SDS011;11691;51.462;6.902;2023-04-27T00:30:03;7.13;;;4.30;;
23046;SDS011;11691;51.462;6.902;2023-04-27T00:32:29;11.10;;;4.90;;
23046;SDS011;11691;51.462;6.902;2023-04-27T00:34:55;8.10;;;4.87;;
23046;SDS011;11691;51.462;6.902;2023-04-27T00:37:20;8.80;;;4.60;;
23046;SDS011;11691;51.462;6.902;2023-04-27T00:39:46;8.70;;;4.57;;
23046;SDS011;11691;51.462;6.902;2023-04-27T00:42:12;8.43;;;4.60;;
23046;SDS011;11691;51.462;6.902;2023-04-27T00:44:41;8.30;;;5.17;;
23046;SDS011;11691;51.462;6.902;2023-04-27T00:47:07;7.37;;;4.67;;
23046;SDS011;11691;51.462;6.902;2023-04-27T00:49:34;10.17;;;5.17;;
23046;SDS011;11691;51.462;6.902;2023-04-27T00:52:00;11.77;;;5.17;;
23046;SDS011;11691;51.462;6.902;2023-04-27T00:54:27;8.63;;;4.70;;
23046;SDS011;11691;51.462;6.902;2023-04-27T00:56:53;7.57;;;4.83;;
23046;SDS011;11691;51.462;6.902;2023-04-27T00:59:19;10.77;;;4.47;;
23046;SDS011;11691;51.462;6.902;2023-04-27T01:01:45;8.13;;;4.50;;
23046;SDS011;11691;51.462;6.902;2023-04-27T01:04:12;7.23;;;4.80;;
23046;SDS011;11691;51.462;6.902;2023-04-27T01:06:38;8.90;;;4.63;;
23046;SDS011;11691;51.462;6.902;2023-04-27T01:09:03;8.97;;;4.57;;
23046;SDS011;11691;51.462;6.902;2023-04-27T01:11:31;8.97;;;4.47;;
23046;SDS011;11691;51.462;6.902;2023-04-27T01:13:56;10.23;;;5.17;;
23046;SDS011;11691;51.462;6.902;2023-04-27T01:16:22;10.17;;;5.83;;
23046;SDS011;11691;51.462;6.902;2023-04-27T01:18:48;10.43;;;5.10;;
23046;SDS011;11691;51.462;6.902;2023-04-27T01:21:14;8.87;;;5.13;;
23046;SDS011;11691;51.462;6.902;2023-04-27T01:23:40;14.23;;;5.80;;
23046;SDS011;11691;51.462;6.902;2023-04-27T01:26:06;10.10;;;5.43;;
23046;SDS011;11691;51.462;6.902;2023-04-27T01:28:35;9.27;;;5.13;;
23046;SDS011;11691;51.462;6.902;2023-04-27T01:31:01;11.90;;;5.90;;
23046;SDS011;11691;51.462;6.902;2023-04-27T01:33:27;9.37;;;6.13;;
23046;SDS011;11691;51.462;6.902;2023-04-27T01:35:53;10.67;;;5.93;;
23046;SDS011;11691;51.462;6.902;2023-04-27T01:38:19;15.00;;;5.97;;
23046;SDS011;11691;51.462;6.902;2023-04-27T01:40:46;10.20;;;5.53;;
23046;SDS011;11691;51.462;6.902;2023-04-27T01:43:12;12.23;;;6.23;;
23046;SDS011;11691;51.462;6.902;2023-04-27T01:45:38;14.23;;;6.30;;
23046;SDS011;11691;51.462;6.902;2023-04-27T01:48:04;11.20;;;6.00;;
23046;SDS011;11691;51.462;6.902;2023-04-27T01:50:30;14.40;;;6.20;;
23046;SDS011;11691;51.462;6.902;2023-04-27T01:52:56;13.43;;;6.83;;
23046;SDS011;11691;51.462;6.902;2023-04-27T01:55:22;10.10;;;6.07;;
23046;SDS011;11691;51.462;6.902;2023-04-27T01:57:49;10.97;;;6.33;;
23046;SDS011;11691;51.462;6.902;2023-04-27T02:00:15;12.93;;;6.53;;
23046;SDS011;11691;51.462;6.902;2023-04-27T02:02:41;11.50;;;6.07;;
23046;SDS011;11691;51.462;6.902;2023-04-27T02:05:07;9.73;;;6.07;;
23046;SDS011;11691;51.462;6.902;2023-04-27T02:07:33;15.27;;;6.67;;
23046;SDS011;11691;51.462;6.902;2023-04-27T02:09:59;9.67;;;6.13;;
23046;SDS011;11691;51.462;6.902;2023-04-27T02:12:25;10.70;;;6.27;;
23046;SDS011;11691;51.462;6.902;2023-04-27T02:14:51;14.53;;;6.67;;
23046;SDS011;11691;51.462;6.902;2023-04-27T02:17:17;12.20;;;6.07;;
23046;SDS011;11691;51.462;6.902;2023-04-27T02:19:43;10.47;;;6.43;;
23046;SDS011;11691;51.462;6.902;2023-04-27T02:22:09;10.30;;;6.40;;
23046;SDS011;11691;51.462;6.902;2023-04-27T02:24:35;15.37;;;5.70;;
23046;SDS011;11691;51.462;6.902;2023-04-27T02:27:01;12.60;;;5.97;;
23046;SDS011;11691;51.462;6.902;2023-04-27T02:29:30;12.37;;;6.13;;
23046;SDS011;11691;51.462;6.902;2023-04-27T02:31:56;10.83;;;5.90;;
23046;SDS011;11691;51.462;6.902;2023-04-27T02:34:22;13.57;;;5.93;;
23046;SDS011;11691;51.462;6.902;2023-04-27T02:36:48;16.50;;;6.90;;
23046;SDS011;11691;51.462;6.902;2023-04-27T02:39:14;10.60;;;6.07;;
23046;SDS011;11691;51.462;6.902;2023-04-27T02:41:40;16.43;;;7.17;;
23046;SDS011;11691;51.462;6.902;2023-04-27T02:44:06;12.90;;;6.50;;
23046;SDS011;11691;51.462;6.902;2023-04-27T02:46:32;8.80;;;5.63;;
23046;SDS011;11691;51.462;6.902;2023-04-27T02:48:58;10.83;;;5.83;;
23046;SDS011;11691;51.462;6.902;2023-04-27T02:51:24;12.87;;;6.37;;
23046;SDS011;11691;51.462;6.902;2023-04-27T02:53:51;11.43;;;5.23;;
23046;SDS011;11691;51.462;6.902;2023-04-27T02:56:17;12.63;;;6.40;;
23046;SDS011;11691;51.462;6.902;2023-04-27T02:58:43;11.50;;;6.20;;
23046;SDS011;11691;51.462;6.902;2023-04-27T03:01:09;18.93;;;5.97;;
23046;SDS011;11691;51.462;6.902;2023-04-27T03:03:35;12.77;;;6.03;;
23046;SDS011;11691;51.462;6.902;2023-04-27T03:06:01;10.30;;;5.60;;
23046;SDS011;11691;51.462;6.902;2023-04-27T03:08:27;10.80;;;5.50;;
23046;SDS011;11691;51.462;6.902;2023-04-27T03:10:53;9.87;;;5.83;;
23046;SDS011;11691;51.462;6.902;2023-04-27T03:13:19;17.23;;;5.93;;
23046;SDS011;11691;51.462;6.902;2023-04-27T03:15:46;13.97;;;6.10;;
23046;SDS011;11691;51.462;6.902;2023-04-27T03:18:12;13.80;;;6.90;;
23046;SDS011;11691;51.462;6.902;2023-04-27T03:20:38;9.97;;;5.63;;
23046;SDS011;11691;51.462;6.902;2023-04-27T03:23:04;11.03;;;5.53;;
23046;SDS011;11691;51.462;6.902;2023-04-27T03:25:30;12.90;;;6.13;;
23046;SDS011;11691;51.462;6.902;2023-04-27T03:27:56;13.60;;;6.20;;
23046;SDS011;11691;51.462;6.902;2023-04-27T03:30:23;11.70;;;6.57;;
23046;SDS011;11691;51.462;6.902;2023-04-27T03:32:49;13.83;;;6.67;;
23046;SDS011;11691;51.462;6.902;2023-04-27T03:35:15;12.70;;;6.23;;
23046;SDS011;11691;51.462;6.902;2023-04-27T03:37:41;13.90;;;6.93;;
23046;SDS011;11691;51.462;6.902;2023-04-27T03:40:10;12.70;;;5.93;;
23046;SDS011;11691;51.462;6.902;2023-04-27T03:42:36;12.30;;;5.90;;
23046;SDS011;11691;51.462;6.902;2023-04-27T03:45:02;13.27;;;5.93;;
23046;SDS011;11691;51.462;6.902;2023-04-27T03:47:29;11.53;;;5.60;;
23046;SDS011;11691;51.462;6.902;2023-04-27T03:49:55;13.37;;;5.77;;
23046;SDS011;11691;51.462;6.902;2023-04-27T03:52:21;9.87;;;5.57;;
23046;SDS011;11691;51.462;6.902;2023-04-27T03:54:47;12.93;;;6.83;;
23046;SDS011;11691;51.462;6.902;2023-04-27T03:57:13;11.00;;;5.57;;
23046;SDS011;11691;51.462;6.902;2023-04-27T03:59:40;10.73;;;5.87;;
23046;SDS011;11691;51.462;6.902;2023-04-27T04:02:06;13.30;;;5.80;;
23046;SDS011;11691;51.462;6.902;2023-04-27T04:04:33;12.20;;;5.73;;
23046;SDS011;11691;51.462;6.902;2023-04-27T04:06:59;11.20;;;6.33;;
23046;SDS011;11691;51.462;6.902;2023-04-27T04:09:25;14.67;;;6.50;;
23046;SDS011;11691;51.462;6.902;2023-04-27T04:11:51;10.57;;;6.23;;
23046;SDS011;11691;51.462;6.902;2023-04-27T04:14:17;12.43;;;5.73;;
23046;SDS011;11691;51.462;6.902;2023-04-27T04:16:43;14.83;;;6.20;;
23046;SDS011;11691;51.462;6.902;2023-04-27T04:19:09;12.40;;;6.40;;
23046;SDS011;11691;51.462;6.902;2023-04-27T04:21:35;11.60;;;6.10;;
23046;SDS011;11691;51.462;6.902;2023-04-27T04:24:01;11.87;;;6.20;;
23046;SDS011;11691;51.462;6.902;2023-04-27T04:26:27;15.30;;;5.93;;
23046;SDS011;11691;51.462;6.902;2023-04-27T04:28:53;12.67;;;6.57;;
23046;SDS011;11691;51.462;6.902;2023-04-27T04:31:19;14.37;;;6.57;;
23046;SDS011;11691;51.462;6.902;2023-04-27T04:33:45;12.57;;;5.60;;
23046;SDS011;11691;51.462;6.902;2023-04-27T04:36:11;11.20;;;6.43;;
23046;SDS011;11691;51.462;6.902;2023-04-27T04:38:37;12.07;;;6.30;;
23046;SDS011;11691;51.462;6.902;2023-04-27T04:41:03;14.90;;;5.97;;
23046;SDS011;11691;51.462;6.902;2023-04-27T04:43:29;11.27;;;6.53;;
23046;SDS011;11691;51.462;6.902;2023-04-27T04:45:55;12.17;;;6.70;;
23046;SDS011;11691;51.462;6.902;2023-04-27T04:48:21;13.60;;;6.87;;
23046;SDS011;11691;51.462;6.902;2023-04-27T04:50:48;15.07;;;6.90;;
23046;SDS011;11691;51.462;6.902;2023-04-27T04:53:14;16.17;;;7.20;;
23046;SDS011;11691;51.462;6.902;2023-04-27T04:55:39;14.83;;;7.33;;
23046;SDS011;11691;51.462;6.902;2023-04-27T04:58:06;17.37;;;7.20;;
23046;SDS011;11691;51.462;6.902;2023-04-27T05:00:32;13.10;;;7.33;;
23046;SDS011;11691;51.462;6.902;2023-04-27T05:02:58;14.43;;;7.10;;
23046;SDS011;11691;51.462;6.902;2023-04-27T05:05:24;13.23;;;7.00;;
23046;SDS011;11691;51.462;6.902;2023-04-27T05:07:50;12.50;;;6.20;;
23046;SDS011;11691;51.462;6.902;2023-04-27T05:10:16;12.43;;;7.00;;
23046;SDS011;11691;51.462;6.902;2023-04-27T05:12:42;13.87;;;6.80;;
23046;SDS011;11691;51.462;6.902;2023-04-27T05:15:08;13.57;;;7.03;;
23046;SDS011;11691;51.462;6.902;2023-04-27T05:17:34;15.70;;;7.00;;
23046;SDS011;11691;51.462;6.902;2023-04-27T05:20:01;15.03;;;6.90;;
23046;SDS011;11691;51.462;6.902;2023-04-27T05:22:28;13.93;;;7.80;;
23046;SDS011;11691;51.462;6.902;2023-04-27T05:24:55;16.37;;;6.70;;
23046;SDS011;11691;51.462;6.902;2023-04-27T05:27:21;13.67;;;7.10;;
23046;SDS011;11691;51.462;6.902;2023-04-27T05:29:47;12.53;;;6.90;;
23046;SDS011;11691;51.462;6.902;2023-04-27T05:32:13;11.67;;;7.23;;
23046;SDS011;11691;51.462;6.902;2023-04-27T05:34:38;12.70;;;7.30;;
23046;SDS011;11691;51.462;6.902;2023-04-27T05:37:05;15.63;;;7.43;;
23046;SDS011;11691;51.462;6.902;2023-04-27T05:39:31;12.67;;;7.53;;
23046;SDS011;11691;51.462;6.902;2023-04-27T05:41:57;13.27;;;7.63;;
23046;SDS011;11691;51.462;6.902;2023-04-27T05:44:22;15.77;;;7.43;;
23046;SDS011;11691;51.462;6.902;2023-04-27T05:46:52;9.93;;;6.40;;
23046;SDS011;11691;51.462;6.902;2023-04-27T05:49:18;16.53;;;6.43;;
23046;SDS011;11691;51.462;6.902;2023-04-27T05:51:44;15.07;;;6.60;;
23046;SDS011;11691;51.462;6.902;2023-04-27T05:54:10;13.40;;;6.13;;
23046;SDS011;11691;51.462;6.902;2023-04-27T05:56:36;10.00;;;6.33;;
23046;SDS011;11691;51.462;6.902;2023-04-27T05:59:02;10.77;;;6.50;;
23046;SDS011;11691;51.462;6.902;2023-04-27T06:01:27;14.67;;;6.47;;
23046;SDS011;11691;51.462;6.902;2023-04-27T06:03:54;10.63;;;6.10;;
23046;SDS011;11691;51.462;6.902;2023-04-27T06:06:19;13.00;;;6.27;;
23046;SDS011;11691;51.462;6.902;2023-04-27T06:08:45;15.03;;;6.80;;
23046;SDS011;11691;51.462;6.902;2023-04-27T06:11:11;10.83;;;6.70;;
23046;SDS011;11691;51.462;6.902;2023-04-27T06:13:37;13.47;;;5.47;;
23046;SDS011;11691;51.462;6.902;2023-04-27T06:16:03;12.10;;;6.43;;
23046;SDS011;11691;51.462;6.902;2023-04-27T06:18:30;11.63;;;5.80;;
23046;SDS011;11691;51.462;6.902;2023-04-27T06:20:59;12.87;;;5.70;;
23046;SDS011;11691;51.462;6.902;2023-04-27T06:23:25;13.97;;;6.20;;
23046;SDS011;11691;51.462;6.902;2023-04-27T06:25:51;15.50;;;5.83;;
23046;SDS011;11691;51.462;6.902;2023-04-27T06:28:17;10.93;;;5.77;;
23046;SDS011;11691;51.462;6.902;2023-04-27T06:30:43;9.87;;;5.73;;
23046;SDS011;11691;51.462;6.902;2023-04-27T06:33:09;12.27;;;5.60;;
23046;SDS011;11691;51.462;6.902;2023-04-27T06:35:35;9.47;;;5.67;;
23046;SDS011;11691;51.462;6.902;2023-04-27T06:38:01;11.33;;;5.80;;
23046;SDS011;11691;51.462;6.902;2023-04-27T06:40:27;10.03;;;5.53;;
23046;SDS011;11691;51.462;6.902;2023-04-27T06:42:53;9.97;;;5.47;;
23046;SDS011;11691;51.462;6.902;2023-04-27T06:45:19;13.27;;;5.27;;
23046;SDS011;11691;51.462;6.902;2023-04-27T06:47:44;12.07;;;5.60;;
23046;SDS011;11691;51.462;6.902;2023-04-27T06:50:10;11.03;;;5.23;;
23046;SDS011;11691;51.462;6.902;2023-04-27T06:52:36;13.57;;;5.67;;
23046;SDS011;11691;51.462;6.902;2023-04-27T06:55:02;11.50;;;4.90;;
23046;SDS011;11691;51.462;6.902;2023-04-27T06:57:28;7.03;;;4.73;;
23046;SDS011;11691;51.462;6.902;2023-04-27T06:59:54;10.90;;;4.80;;
23046;SDS011;11691;51.462;6.902;2023-04-27T07:02:20;9.03;;;4.20;;
23046;SDS011;11691;51.462;6.902;2023-04-27T07:04:46;12.20;;;4.80;;
23046;SDS011;11691;51.462;6.902;2023-04-27T07:07:12;8.50;;;4.27;;
23046;SDS011;11691;51.462;6.902;2023-04-27T07:09:38;8.70;;;4.37;;
23046;SDS011;11691;51.462;6.902;2023-04-27T07:12:04;5.83;;;4.40;;
23046;SDS011;11691;51.462;6.902;2023-04-27T07:14:30;9.93;;;4.88;;
23046;SDS011;11691;51.462;6.902;2023-04-27T07:16:57;6.63;;;3.75;;
23046;SDS011;11691;51.462;6.902;2023-04-27T07:19:23;8.98;;;4.10;;
23046;SDS011;11691;51.462;6.902;2023-04-27T07:21:49;9.68;;;4.30;;
23046;SDS011;11691;51.462;6.902;2023-04-27T07:24:15;10.68;;;4.63;;
23046;SDS011;11691;51.462;6.902;2023-04-27T07:26:41;7.82;;;4.15;;
23046;SDS011;11691;51.462;6.902;2023-04-27T07:29:08;9.38;;;4.43;;
23046;SDS011;11691;51.462;6.902;2023-04-27T07:31:34;6.72;;;3.60;;
23046;SDS011;11691;51.462;6.902;2023-04-27T07:34:00;8.07;;;3.78;;
23046;SDS011;11691;51.462;6.902;2023-04-27T07:36:26;6.47;;;3.35;;
23046;SDS011;11691;51.462;6.902;2023-04-27T07:38:52;7.72;;;3.35;;
23046;SDS011;11691;51.462;6.902;2023-04-27T07:41:18;11.50;;;3.55;;
23046;SDS011;11691;51.462;6.902;2023-04-27T07:43:44;8.02;;;3.30;;
23046;SDS011;11691;51.462;6.902;2023-04-27T07:46:09;6.90;;;3.33;;
23046;SDS011;11691;51.462;6.902;2023-04-27T07:48:36;9.50;;;3.55;;
23046;SDS011;11691;51.462;6.902;2023-04-27T07:51:02;7.10;;;3.65;;
23046;SDS011;11691;51.462;6.902;2023-04-27T07:53:27;6.03;;;3.28;;
23046;SDS011;11691;51.462;6.902;2023-04-27T07:55:53;8.95;;;3.30;;
23046;SDS011;11691;51.462;6.902;2023-04-27T07:58:19;6.75;;;3.38;;
23046;SDS011;11691;51.462;6.902;2023-04-27T08:00:46;6.82;;;3.10;;
23046;SDS011;11691;51.462;6.902;2023-04-27T08:03:12;5.65;;;3.20;;
23046;SDS011;11691;51.462;6.902;2023-04-27T08:05:38;5.72;;;3.20;;
23046;SDS011;11691;51.462;6.902;2023-04-27T08:08:04;6.35;;;3.00;;
23046;SDS011;11691;51.462;6.902;2023-04-27T08:10:30;6.93;;;4.05;;
23046;SDS011;11691;51.462;6.902;2023-04-27T08:12:56;7.22;;;3.60;;
23046;SDS011;11691;51.462;6.902;2023-04-27T08:15:22;4.78;;;3.35;;
23046;SDS011;11691;51.462;6.902;2023-04-27T08:17:48;6.97;;;3.13;;
23046;SDS011;11691;51.462;6.902;2023-04-27T08:20:14;6.10;;;3.08;;
23046;SDS011;11691;51.462;6.902;2023-04-27T08:22:40;7.13;;;3.33;;
23046;SDS011;11691;51.462;6.902;2023-04-27T08:25:07;7.43;;;3.75;;
23046;SDS011;11691;51.462;6.902;2023-04-27T08:27:36;6.55;;;3.00;;
23046;SDS011;11691;51.462;6.902;2023-04-27T08:30:04;6.45;;;3.10;;
23046;SDS011;11691;51.462;6.902;2023-04-27T08:32:30;7.07;;;2.75;;
23046;SDS011;11691;51.462;6.902;2023-04-27T08:34:56;6.53;;;3.15;;
23046;SDS011;11691;51.462;6.902;2023-04-27T08:37:22;5.30;;;3.03;;
23046;SDS011;11691;51.462;6.902;2023-04-27T08:39:48;9.07;;;3.13;;
23046;SDS011;11691;51.462;6.902;2023-04-27T08:42:14;5.85;;;2.92;;
23046;SDS011;11691;51.462;6.902;2023-04-27T08:44:40;3.67;;;2.70;;
23046;SDS011;11691;51.462;6.902;2023-04-27T08:47:06;7.93;;;2.10;;
23046;SDS011;11691;51.462;6.902;2023-04-27T08:49:33;8.55;;;2.75;;
23046;SDS011;11691;51.462;6.902;2023-04-27T08:52:00;6.38;;;2.65;;
23046;SDS011;11691;51.462;6.902;2023-04-27T08:54:26;5.57;;;2.58;;
23046;SDS011;11691;51.462;6.902;2023-04-27T08:56:52;5.65;;;2.88;;
23046;SDS011;11691;51.462;6.902;2023-04-27T08:59:18;4.63;;;2.88;;
23046;SDS011;11691;51.462;6.902;2023-04-27T09:01:47;4.60;;;2.65;;
23046;SDS011;11691;51.462;6.902;2023-04-27T09:04:13;5.50;;;2.60;;
23046;SDS011;11691;51.462;6.902;2023-04-27T09:06:40;7.40;;;2.75;;
23046;SDS011;11691;51.462;6.902;2023-04-27T09:09:06;6.10;;;2.50;;
23046;SDS011;11691;51.462;6.902;2023-04-27T09:11:36;4.97;;;2.95;;
23046;SDS011;11691;51.462;6.902;2023-04-27T09:14:13;4.30;;;2.20;;
23046;SDS011;11691;51.462;6.902;2023-04-27T09:16:41;6.20;;;2.40;;
23046;SDS011;11691;51.462;6.902;2023-04-27T09:19:06;7.10;;;3.00;;
23046;SDS011;11691;51.462;6.902;2023-04-27T09:21:32;5.32;;;2.67;;
23046;SDS011;11691;51.462;6.902;2023-04-27T09:24:08;3.20;;;2.30;;
23046;SDS011;11691;51.462;6.902;2023-04-27T09:26:36;2.95;;;2.03;;
23046;SDS011;11691;51.462;6.902;2023-04-27T09:29:02;6.63;;;2.47;;
23046;SDS011;11691;51.462;6.902;2023-04-27T09:31:31;5.60;;;2.33;;
23046;SDS011;11691;51.462;6.902;2023-04-27T09:33:57;5.13;;;2.25;;
23046;SDS011;11691;51.462;6.902;2023-04-27T09:36:24;3.40;;;2.08;;
23046;SDS011;11691;51.462;6.902;2023-04-27T09:38:50;3.72;;;2.33;;
23046;SDS011;11691;51.462;6.902;2023-04-27T09:41:16;5.00;;;2.45;;
23046;SDS011;11691;51.462;6.902;2023-04-27T09:43:43;5.57;;;2.72;;
23046;SDS011;11691;51.462;6.902;2023-04-27T09:46:12;3.88;;;2.55;;
23046;SDS011;11691;51.462;6.902;2023-04-27T09:48:38;3.35;;;2.40;;
23046;SDS011;11691;51.462;6.902;2023-04-27T09:51:05;3.85;;;2.20;;
23046;SDS011;11691;51.462;6.902;2023-04-27T09:53:50;5.05;;;2.25;;
23046;SDS011;11691;51.462;6.902;2023-04-27T09:59:09;2.83;;;2.35;;
23046;SDS011;11691;51.462;6.902;2023-04-27T10:01:47;5.82;;;2.28;;
23046;SDS011;11691;51.462;6.902;2023-04-27T10:09:06;4.18;;;2.45;;
23046;SDS011;11691;51.462;6.902;2023-04-27T10:11:36;5.05;;;2.33;;
23046;SDS011;11691;51.462;6.902;2023-04-27T10:14:05;4.80;;;2.60;;
23046;SDS011;11691;51.462;6.902;2023-04-27T10:16:45;4.32;;;2.40;;
23046;SDS011;11691;51.462;6.902;2023-04-27T10:19:11;3.97;;;2.40;;
23046;SDS011;11691;51.462;6.902;2023-04-27T10:21:49;4.97;;;2.50;;
23046;SDS011;11691;51.462;6.902;2023-04-27T10:24:15;5.85;;;2.10;;
23046;SDS011;11691;51.462;6.902;2023-04-27T10:26:45;2.90;;;1.85;;
23046;SDS011;11691;51.462;6.902;2023-04-27T10:29:12;4.68;;;2.10;;
23046;SDS011;11691;51.462;6.902;2023-04-27T10:31:43;4.85;;;2.17;;
23046;SDS011;11691;51.462;6.902;2023-04-27T10:34:15;4.60;;;2.63;;
23046;SDS011;11691;51.462;6.902;2023-04-27T10:36:41;5.70;;;2.00;;
23046;SDS011;11691;51.462;6.902;2023-04-27T10:39:17;4.60;;;2.45;;
23046;SDS011;11691;51.462;6.902;2023-04-27T10:41:52;5.65;;;2.20;;
23046;SDS011;11691;51.462;6.902;2023-04-27T10:44:23;3.75;;;2.40;;
23046;SDS011;11691;51.462;6.902;2023-04-27T10:46:55;3.25;;;2.50;;
23046;SDS011;11691;51.462;6.902;2023-04-27T10:49:21;7.20;;;2.60;;
23046;SDS011;11691;51.462;6.902;2023-04-27T10:51:51;7.75;;;2.70;;
23046;SDS011;11691;51.462;6.902;2023-04-27T10:54:16;3.72;;;2.25;;
23046;SDS011;11691;51.462;6.902;2023-04-27T10:56:42;3.97;;;2.28;;
23046;SDS011;11691;51.462;6.902;2023-04-27T10:59:08;4.22;;;2.70;;
23046;SDS011;11691;51.462;6.902;2023-04-27T11:01:35;7.07;;;2.67;;
23046;SDS011;11691;51.462;6.902;2023-04-27T11:04:01;5.20;;;2.70;;
23046;SDS011;11691;51.462;6.902;2023-04-27T11:06:28;4.60;;;2.67;;
23046;SDS011;11691;51.462;6.902;2023-04-27T11:08:55;5.40;;;2.70;;
23046;SDS011;11691;51.462;6.902;2023-04-27T11:11:21;5.20;;;2.88;;
23046;SDS011;11691;51.462;6.902;2023-04-27T11:13:48;3.65;;;2.70;;
23046;SDS011;11691;51.462;6.902;2023-04-27T11:16:16;6.55;;;3.17;;
23046;SDS011;11691;51.462;6.902;2023-04-27T11:18:43;5.10;;;3.30;;
23046;SDS011;11691;51.462;6.902;2023-04-27T11:21:10;5.60;;;3.13;;
23046;SDS011;11691;51.462;6.902;2023-04-27T11:23:37;5.15;;;3.10;;
23046;SDS011;11691;51.462;6.902;2023-04-27T11:26:17;4.55;;;2.58;;
23046;SDS011;11691;51.462;6.902;2023-04-27T11:31:21;5.60;;;2.67;;
23046;SDS011;11691;51.462;6.902;2023-04-27T11:33:48;4.15;;;2.80;;
23046;SDS011;11691;51.462;6.902;2023-04-27T11:36:15;4.75;;;3.00;;
23046;SDS011;11691;51.462;6.902;2023-04-27T11:38:46;6.05;;;2.92;;
23046;SDS011;11691;51.462;6.902;2023-04-27T11:41:13;5.03;;;2.90;;
23046;SDS011;11691;51.462;6.902;2023-04-27T11:43:40;5.10;;;2.38;;
23046;SDS011;11691;51.462;6.902;2023-04-27T11:46:10;4.82;;;2.75;;
23046;SDS011;11691;51.462;6.902;2023-04-27T11:48:36;5.22;;;2.72;;
23046;SDS011;11691;51.462;6.902;2023-04-27T11:51:02;5.32;;;2.92;;
23046;SDS011;11691;51.462;6.902;2023-04-27T11:53:33;7.35;;;3.08;;
23046;SDS011;11691;51.462;6.902;2023-04-27T11:56:02;3.65;;;2.45;;
23046;SDS011;11691;51.462;6.902;2023-04-27T11:58:33;6.03;;;2.45;;
23046;SDS011;11691;51.462;6.902;2023-04-27T12:01:00;5.13;;;2.65;;
23046;SDS011;11691;51.462;6.902;2023-04-27T12:03:26;3.45;;;2.30;;
23046;SDS011;11691;51.462;6.902;2023-04-27T12:05:53;7.15;;;3.03;;
23046;SDS011;11691;51.462;6.902;2023-04-27T12:08:19;3.17;;;2.50;;
23046;SDS011;11691;51.462;6.902;2023-04-27T12:10:45;5.18;;;2.78;;
23046;SDS011;11691;51.462;6.902;2023-04-27T12:13:11;3.22;;;2.30;;
23046;SDS011;11691;51.462;6.902;2023-04-27T12:15:38;5.13;;;2.80;;
23046;SDS011;11691;51.462;6.902;2023-04-27T12:18:05;5.93;;;3.40;;
23046;SDS011;11691;51.462;6.902;2023-04-27T12:20:31;3.45;;;2.78;;
23046;SDS011;11691;51.462;6.902;2023-04-27T12:22:57;4.75;;;3.00;;
23046;SDS011;11691;51.462;6.902;2023-04-27T12:25:23;6.03;;;3.10;;
23046;SDS011;11691;51.462;6.902;2023-04-27T12:27:49;3.75;;;3.25;;
23046;SDS011;11691;51.462;6.902;2023-04-27T12:30:15;4.20;;;3.17;;
23046;SDS011;11691;51.462;6.902;2023-04-27T12:32:42;4.20;;;2.67;;
23046;SDS011;11691;51.462;6.902;2023-04-27T12:35:08;3.65;;;2.95;;
23046;SDS011;11691;51.462;6.902;2023-04-27T12:37:34;6.45;;;2.88;;
23046;SDS011;11691;51.462;6.902;2023-04-27T12:40:01;5.82;;;3.30;;
23046;SDS011;11691;51.462;6.902;2023-04-27T12:42:30;6.22;;;3.50;;
23046;SDS011;11691;51.462;6.902;2023-04-27T12:44:56;5.20;;;3.13;;
23046;SDS011;11691;51.462;6.902;2023-04-27T12:47:22;6.63;;;3.22;;
23046;SDS011;11691;51.462;6.902;2023-04-27T12:49:48;5.75;;;3.95;;
23046;SDS011;11691;51.462;6.902;2023-04-27T12:52:15;6.57;;;3.47;;
23046;SDS011;11691;51.462;6.902;2023-04-27T12:54:41;5.13;;;3.67;;
23046;SDS011;11691;51.462;6.902;2023-04-27T12:57:07;6.22;;;3.67;;
23046;SDS011;11691;51.462;6.902;2023-04-27T12:59:33;4.05;;;3.33;;
23046;SDS011;11691;51.462;6.902;2023-04-27T13:01:59;6.07;;;3.67;;
23046;SDS011;11691;51.462;6.902;2023-04-27T13:04:26;6.68;;;3.50;;
23046;SDS011;11691;51.462;6.902;2023-04-27T13:06:53;5.65;;;3.20;;
23046;SDS011;11691;51.462;6.902;2023-04-27T13:09:19;4.60;;;3.30;;
23046;SDS011;11691;51.462;6.902;2023-04-27T13:11:45;3.97;;;2.92;;
23046;SDS011;11691;51.462;6.902;2023-04-27T13:14:11;6.07;;;3.42;;
23046;SDS011;11691;51.462;6.902;2023-04-27T13:16:38;4.13;;;3.50;;
23046;SDS011;11691;51.462;6.902;2023-04-27T13:19:04;6.47;;;3.50;;
23046;SDS011;11691;51.462;6.902;2023-04-27T13:21:30;5.78;;;3.47;;
23046;SDS011;11691;51.462;6.902;2023-04-27T13:23:57;5.72;;;3.15;;
23046;SDS011;11691;51.462;6.902;2023-04-27T13:26:23;4.40;;;3.10;;
23046;SDS011;11691;51.462;6.902;2023-04-27T13:28:48;4.35;;;3.10;;
23046;SDS011;11691;51.462;6.902;2023-04-27T13:31:14;4.60;;;3.15;;
23046;SDS011;11691;51.462;6.902;2023-04-27T13:33:40;3.85;;;2.55;;
23046;SDS011;11691;51.462;6.902;2023-04-27T13:36:08;4.13;;;2.88;;
23046;SDS011;11691;51.462;6.902;2023-04-27T13:38:34;5.18;;;3.17;;
23046;SDS011;11691;51.462;6.902;2023-04-27T13:41:00;5.13;;;3.70;;
23046;SDS011;11691;51.462;6.902;2023-04-27T13:43:26;4.20;;;3.17;;
23046;SDS011;11691;51.462;6.902;2023-04-27T13:45:52;5.50;;;3.30;;
23046;SDS011;11691;51.462;6.902;2023-04-27T13:48:20;6.50;;;4.13;;
23046;SDS011;11691;51.462;6.902;2023-04-27T13:50:46;4.82;;;3.88;;
23046;SDS011;11691;51.462;6.902;2023-04-27T13:53:12;6.43;;;3.70;;
23046;SDS011;11691;51.462;6.902;2023-04-27T13:55:40;6.25;;;3.58;;
23046;SDS011;11691;51.462;6.902;2023-04-27T13:58:06;5.80;;;3.55;;
23046;SDS011;11691;51.462;6.902;2023-04-27T14:00:32;6.18;;;3.70;;
23046;SDS011;11691;51.462;6.902;2023-04-27T14:02:59;7.13;;;4.75;;
23046;SDS011;11691;51.462;6.902;2023-04-27T14:05:25;5.18;;;3.95;;
23046;SDS011;11691;51.462;6.902;2023-04-27T14:07:51;6.82;;;4.20;;
23046;SDS011;11691;51.462;6.902;2023-04-27T14:10:18;4.72;;;3.92;;
23046;SDS011;11691;51.462;6.902;2023-04-27T14:12:44;6.57;;;4.50;;
23046;SDS011;11691;51.462;6.902;2023-04-27T14:15:10;5.75;;;4.28;;
23046;SDS011;11691;51.462;6.902;2023-04-27T14:17:36;10.80;;;3.95;;
23046;SDS011;11691;51.462;6.902;2023-04-27T14:20:03;8.25;;;4.30;;
23046;SDS011;11691;51.462;6.902;2023-04-27T14:22:31;6.65;;;4.32;;
23046;SDS011;11691;51.462;6.902;2023-04-27T14:24:57;6.72;;;4.38;;
23046;SDS011;11691;51.462;6.902;2023-04-27T14:27:23;6.07;;;4.93;;
23046;SDS011;11691;51.462;6.902;2023-04-27T14:29:49;12.63;;;4.05;;
23046;SDS011;11691;51.462;6.902;2023-04-27T14:32:16;7.05;;;3.90;;
23046;SDS011;11691;51.462;6.902;2023-04-27T14:34:42;7.35;;;4.53;;
23046;SDS011;11691;51.462;6.902;2023-04-27T14:37:08;6.80;;;3.95;;
23046;SDS011;11691;51.462;6.902;2023-04-27T14:39:34;4.05;;;3.13;;
23046;SDS011;11691;51.462;6.902;2023-04-27T14:42:00;6.55;;;4.00;;
23046;SDS011;11691;51.462;6.902;2023-04-27T14:44:26;8.23;;;4.43;;
23046;SDS011;11691;51.462;6.902;2023-04-27T14:46:52;6.75;;;4.05;;
23046;SDS011;11691;51.462;6.902;2023-04-27T14:49:18;6.97;;;4.43;;